createdAt,value
2023-03-05T00:03:38.182Z,53.84
2023-03-05T00:09:00.188Z,53.55
2023-03-05T00:14:22.550Z,54.44
2023-03-05T00:19:44.391Z,53.49
2023-03-05T00:25:06.817Z,54.01
2023-03-05T00:30:28.697Z,53.61
2023-03-05T00:35:50.710Z,53.96
2023-03-05T00:41:12.612Z,54.66
2023-03-05T00:46:34.530Z,54.09
2023-03-05T00:51:56.398Z,54.59
2023-03-05T00:57:18.357Z,55.06
2023-03-05T01:02:40.777Z,54.85
2023-03-05T01:08:03.260Z,54.62
2023-03-05T01:13:25.103Z,54.58
2023-03-05T01:18:46.933Z,54.93
2023-03-05T01:24:09.124Z,54.90
2023-03-05T01:29:31.142Z,55.42
2023-03-05T01:34:52.949Z,56.00
2023-03-05T01:40:18.134Z,56.21
2023-03-05T01:46:11.644Z,56.51
2023-03-05T01:51:45.771Z,56.55
2023-03-05T01:57:12.586Z,57.15
2023-03-05T02:02:34.580Z,57.03
2023-03-05T02:07:58.073Z,57.17
2023-03-05T02:13:26.205Z,58.18
2023-03-05T02:18:48.028Z,57.80
2023-03-05T02:24:13.045Z,58.20
2023-03-05T02:29:38.869Z,59.05
2023-03-05T02:35:00.728Z,58.52
2023-03-05T02:40:23.064Z,58.64
2023-03-05T02:45:46.013Z,58.43
2023-03-05T02:51:08.527Z,59.23
2023-03-05T02:56:30.536Z,59.89
2023-03-05T03:01:52.356Z,59.33
2023-03-05T03:07:15.546Z,60.30
2023-03-05T03:12:42.943Z,60.25
2023-03-05T03:18:04.818Z,59.86
2023-03-05T03:23:26.995Z,59.95
2023-03-05T03:28:48.843Z,59.71
2023-03-05T03:34:10.774Z,59.46
2023-03-05T03:39:32.685Z,59.48
2023-03-05T03:44:54.603Z,59.84
2023-03-05T03:50:17.359Z,60.60
2023-03-05T03:55:39.209Z,60.85
2023-03-05T04:01:01.149Z,60.59
2023-03-05T04:06:23.067Z,60.86
2023-03-05T04:11:44.984Z,60.56
2023-03-05T04:17:06.809Z,61.03
2023-03-05T04:22:28.637Z,61.32
2023-03-05T04:27:50.488Z,60.72
2023-03-05T04:33:12.375Z,61.54
2023-03-05T04:38:34.225Z,61.30
2023-03-05T04:43:56.209Z,60.56
2023-03-05T04:49:18.108Z,60.95
2023-03-05T04:54:40.337Z,60.62
2023-03-05T05:00:02.867Z,60.51
2023-03-05T05:05:28.334Z,60.94
2023-03-05T05:11:04.474Z,61.24
2023-03-05T05:16:26.264Z,61.96
2023-03-05T05:21:48.109Z,61.68
2023-03-05T05:27:09.929Z,60.47
2023-03-05T05:32:31.946Z,60.53
2023-03-05T05:37:54.265Z,60.52
2023-03-05T05:43:16.124Z,59.45
2023-03-05T05:48:38.319Z,51.77
2023-03-05T05:54:00.169Z,51.01
2023-03-05T05:59:22.019Z,43.78
2023-03-05T06:04:43.877Z,37.52
2023-03-05T06:10:06.448Z,36.40
2023-03-05T06:15:28.307Z,30.86
2023-03-05T06:21:06.105Z,27.16
2023-03-05T06:26:28.065Z,28.16
2023-03-05T06:31:49.910Z,27.89
2023-03-05T06:37:11.749Z,35.13
2023-03-05T06:42:34.826Z,39.58
2023-03-05T06:47:56.672Z,40.12
2023-03-05T06:53:18.501Z,41.17
2023-03-05T06:58:41.022Z,39.67
2023-03-05T07:04:03.316Z,41.50
2023-03-05T07:09:25.144Z,38.92
2023-03-05T07:14:46.999Z,37.79
2023-03-05T07:20:09.786Z,36.46
2023-03-05T07:25:32.114Z,35.70
2023-03-05T07:30:58.982Z,34.03
2023-03-05T07:36:20.964Z,37.26
2023-03-05T07:41:42.798Z,34.61
2023-03-05T07:47:05.389Z,35.71
2023-03-05T07:52:27.297Z,38.27
2023-03-05T07:57:49.157Z,39.10
2023-03-05T08:03:11.003Z,40.28
2023-03-05T08:08:32.886Z,41.15
2023-03-05T08:13:54.752Z,42.05
2023-03-05T08:19:16.618Z,43.81
2023-03-05T08:24:38.518Z,45.61
2023-03-05T08:30:01.809Z,45.59
2023-03-05T08:35:23.914Z,45.68
2023-03-05T08:40:45.880Z,46.69
2023-03-05T08:46:07.898Z,47.62
2023-03-05T08:51:29.852Z,47.69
2023-03-05T08:56:51.738Z,48.74
2023-03-05T09:02:13.794Z,49.14
2023-03-05T09:07:35.861Z,49.00
2023-03-05T09:12:57.771Z,49.67
2023-03-05T09:18:19.620Z,50.35
2023-03-05T09:23:42.157Z,49.94
2023-03-05T09:29:04.004Z,49.99
2023-03-05T09:34:25.917Z,50.33
2023-03-05T09:39:47.755Z,50.92
2023-03-05T09:45:15.491Z,50.91
2023-03-05T09:50:42.362Z,51.23
2023-03-05T09:56:31.306Z,51.61
2023-03-05T10:01:53.863Z,52.19
2023-03-05T10:07:25.933Z,51.17
2023-03-05T10:13:21.068Z,52.52
2023-03-05T10:18:48.597Z,51.81
2023-03-05T10:24:45.552Z,53.03
2023-03-05T10:30:36.500Z,53.13
2023-03-05T10:36:11.468Z,54.02
2023-03-05T10:41:45.227Z,55.23
2023-03-05T10:47:30.485Z,55.30
2023-03-05T10:53:28.850Z,55.18
2023-03-05T10:58:50.765Z,55.57
2023-03-05T11:04:34.932Z,56.88
2023-03-05T11:10:16.788Z,59.52
2023-03-05T11:15:38.737Z,57.64
2023-03-05T11:21:08.483Z,58.22
2023-03-05T11:26:30.919Z,57.31
2023-03-05T11:31:53.724Z,58.33
2023-03-05T11:37:23.711Z,58.43
2023-03-05T11:42:54.480Z,59.18
2023-03-05T11:48:20.836Z,60.28
2023-03-05T11:53:45.209Z,62.52
2023-03-05T11:59:39.149Z,64.18
2023-03-05T12:05:01.045Z,66.61
2023-03-05T12:10:25.653Z,67.78
2023-03-05T12:15:59.669Z,69.22
2023-03-05T12:21:24.574Z,69.52
2023-03-05T12:27:01.699Z,70.18
2023-03-05T12:32:23.497Z,73.40
2023-03-05T12:37:45.305Z,75.63
2023-03-05T12:43:29.184Z,76.19
2023-03-05T12:48:51.356Z,77.60
2023-03-05T12:54:28.478Z,76.51
2023-03-05T12:59:58.401Z,77.14
2023-03-05T13:05:29.051Z,75.70
2023-03-05T13:10:52.440Z,76.20
2023-03-05T13:16:25.033Z,78.21
2023-03-05T13:22:10.989Z,75.81
2023-03-05T13:27:33.349Z,74.88
2023-03-05T13:33:00.461Z,76.37
2023-03-05T13:38:30.864Z,75.42
2023-03-05T13:44:01.058Z,74.48
2023-03-05T13:49:26.890Z,75.12
2023-03-05T13:54:48.895Z,74.83
2023-03-05T14:00:38.032Z,73.66
2023-03-05T14:06:01.589Z,73.12
2023-03-05T14:11:23.569Z,76.37
2023-03-05T14:16:45.444Z,75.55
2023-03-05T14:22:34.503Z,75.38
2023-03-05T14:27:57.158Z,75.33
2023-03-05T14:33:30.233Z,75.46
2023-03-05T14:38:53.610Z,75.39
2023-03-05T14:44:17.128Z,75.15
2023-03-05T14:49:38.956Z,75.63
2023-03-05T14:55:01.084Z,76.93
2023-03-05T15:00:25.586Z,77.23
2023-03-05T15:05:53.186Z,77.61
2023-03-05T15:11:15.041Z,77.68
2023-03-05T15:16:37.409Z,77.26
2023-03-05T15:21:59.321Z,77.59
2023-03-05T15:27:21.178Z,77.56
2023-03-05T15:32:43.108Z,77.59
2023-03-05T15:38:05.044Z,78.21
2023-03-05T15:43:26.950Z,79.43
2023-03-05T15:48:48.805Z,78.27
2023-03-05T15:54:10.704Z,79.02
2023-03-05T15:59:32.564Z,80.41
2023-03-05T16:04:54.463Z,79.71
2023-03-05T16:10:20.695Z,79.26
2023-03-05T16:15:43.413Z,79.89
2023-03-05T16:21:05.514Z,79.75
2023-03-05T16:26:27.449Z,79.84
2023-03-05T16:31:49.325Z,81.28
2023-03-05T16:37:19.250Z,80.79
2023-03-05T16:42:42.697Z,80.79
2023-03-05T16:48:04.765Z,81.28
2023-03-05T16:53:26.666Z,81.24
2023-03-05T16:58:50.498Z,81.88
2023-03-05T17:04:14.096Z,82.37
2023-03-05T17:09:36.505Z,83.62
2023-03-05T17:14:58.330Z,83.00
2023-03-05T17:20:22.268Z,83.07
2023-03-05T17:25:44.186Z,83.95
2023-03-05T17:31:06.305Z,85.10
2023-03-05T17:36:28.175Z,85.33
2023-03-05T17:41:50.042Z,85.95
2023-03-05T17:47:11.954Z,86.06
2023-03-05T17:52:35.408Z,86.58
2023-03-05T17:57:57.455Z,87.90
2023-03-05T18:03:19.493Z,88.91
2023-03-05T18:08:41.322Z,89.62
2023-03-05T18:14:03.448Z,89.24
2023-03-05T18:19:25.300Z,90.05
2023-03-05T18:24:47.185Z,90.30
2023-03-05T18:30:09.879Z,90.93
2023-03-05T18:35:32.189Z,90.19
2023-03-05T18:40:56.238Z,93.24
2023-03-05T18:46:18.502Z,89.81
2023-03-05T18:51:41.883Z,90.54
2023-03-05T18:57:03.904Z,90.33
2023-03-05T19:02:25.875Z,91.28
2023-03-05T19:07:48.264Z,90.92
2023-03-05T19:13:12.173Z,91.45
2023-03-05T19:18:34.218Z,91.01
2023-03-05T19:23:56.105Z,90.39
2023-03-05T19:29:18.061Z,89.83
2023-03-05T19:34:40.284Z,91.54
2023-03-05T19:40:02.421Z,90.68
2023-03-05T19:45:24.453Z,90.42
2023-03-05T19:50:46.370Z,90.83
2023-03-05T19:56:09.306Z,89.95
2023-03-05T20:01:31.336Z,90.14
2023-03-05T20:06:53.309Z,90.44
2023-03-05T20:12:15.303Z,90.53
2023-03-05T20:17:37.938Z,91.64
2023-03-05T20:22:59.885Z,90.59
2023-03-05T20:28:22.157Z,91.33
2023-03-05T20:33:44.222Z,93.37
2023-03-05T20:39:07.265Z,93.51
2023-03-05T20:44:29.253Z,93.76
2023-03-05T20:49:55.071Z,93.91
2023-03-05T20:55:17.224Z,94.71
2023-03-05T21:00:40.388Z,94.28
2023-03-05T21:06:03.245Z,93.56
2023-03-05T21:11:25.737Z,93.50
2023-03-05T21:16:47.644Z,92.83
2023-03-05T21:22:09.512Z,93.53
2023-03-05T21:27:31.449Z,93.08
2023-03-05T21:32:53.427Z,92.60
2023-03-05T21:38:15.584Z,92.09
2023-03-05T21:43:37.491Z,92.45
2023-03-05T21:48:59.401Z,91.61
2023-03-05T21:54:23.823Z,91.62
2023-03-05T21:59:45.862Z,90.84
2023-03-05T22:05:11.616Z,90.35
2023-03-05T22:10:33.508Z,91.52
2023-03-05T22:15:57.590Z,90.97
2023-03-05T22:21:22.384Z,90.29
2023-03-05T22:26:44.344Z,90.20
2023-03-05T22:32:06.367Z,90.53
2023-03-05T22:37:29.576Z,89.48
2023-03-05T22:42:51.478Z,90.42
2023-03-05T22:48:14.103Z,89.84
2023-03-05T22:53:36.191Z,89.64
2023-03-05T22:58:58.171Z,90.51
2023-03-05T23:04:21.642Z,91.07
2023-03-05T23:09:43.811Z,93.07
2023-03-05T23:15:08.948Z,91.84
2023-03-05T23:20:34.291Z,92.74
2023-03-05T23:25:56.151Z,93.16
2023-03-05T23:31:19.281Z,93.64
2023-03-05T23:36:41.234Z,94.71
2023-03-05T23:42:03.186Z,94.18
2023-03-05T23:47:25.164Z,94.19
2023-03-05T23:52:48.338Z,93.48
2023-03-05T23:58:11.200Z,94.71
